createdAt,value
2018-11-29T00:00:40.560Z,1.73
2018-11-29T00:03:11.078Z,1.20
2018-11-29T00:05:39.964Z,1.40
2018-11-29T00:08:08.885Z,1.57
2018-11-29T00:10:37.848Z,1.33
2018-11-29T00:13:06.572Z,1.40
2018-11-29T00:15:35.673Z,1.10
2018-11-29T00:18:05.059Z,1.00
2018-11-29T00:20:34.487Z,1.10
2018-11-29T00:23:03.416Z,1.60
2018-11-29T00:25:31.688Z,1.00
2018-11-29T00:28:00.678Z,1.50
2018-11-29T00:30:29.640Z,1.23
2018-11-29T00:32:58.807Z,1.00
2018-11-29T00:35:27.858Z,1.37
2018-11-29T00:37:56.789Z,1.17
2018-11-29T00:40:25.750Z,1.10
2018-11-29T00:42:54.541Z,0.97
2018-11-29T00:47:55.993Z,1.23
2018-11-29T00:50:24.912Z,1.00
2018-11-29T00:52:54.012Z,1.30
2018-11-29T00:55:22.951Z,1.17
2018-11-29T00:57:53.111Z,1.13
2018-11-29T01:00:22.232Z,1.20
2018-11-29T01:02:51.370Z,1.10
2018-11-29T01:05:20.754Z,1.00
2018-11-29T01:07:49.812Z,1.00
2018-11-29T01:10:19.043Z,1.07
2018-11-29T01:12:48.013Z,1.90
2018-11-29T01:15:17.944Z,1.23
2018-11-29T01:17:46.955Z,1.30
2018-11-29T01:20:16.589Z,2.07
2018-11-29T01:22:45.155Z,1.30
2018-11-29T01:25:14.165Z,2.10
2018-11-29T01:27:43.751Z,1.37
2018-11-29T01:30:13.989Z,1.67
2018-11-29T01:32:43.371Z,1.27
2018-11-29T01:35:13.283Z,1.43
2018-11-29T01:37:42.390Z,1.47
2018-11-29T01:40:17.076Z,2.00
2018-11-29T01:42:48.525Z,1.60
2018-11-29T01:45:17.600Z,1.70
2018-11-29T01:47:47.004Z,1.27
2018-11-29T01:50:15.896Z,1.17
2018-11-29T01:52:44.695Z,1.03
2018-11-29T01:55:13.583Z,1.10
2018-11-29T01:57:42.582Z,1.03
2018-11-29T02:00:12.385Z,1.53
2018-11-29T02:02:41.576Z,0.93
2018-11-29T02:05:10.623Z,1.03
2018-11-29T02:07:39.883Z,1.20
2018-11-29T02:10:18.020Z,1.20
2018-11-29T02:12:47.016Z,1.10
2018-11-29T02:15:16.516Z,1.20
2018-11-29T02:17:45.623Z,1.20
2018-11-29T02:20:15.283Z,1.10
2018-11-29T02:22:44.484Z,1.53
2018-11-29T02:25:13.532Z,1.23
2018-11-29T02:27:42.730Z,1.43
2018-11-29T02:30:20.124Z,1.53
2018-11-29T02:32:48.916Z,1.33
2018-11-29T02:35:17.908Z,1.30
2018-11-29T02:37:47.172Z,1.23
2018-11-29T02:40:16.212Z,1.10
2018-11-29T02:42:45.668Z,1.40
2018-11-29T02:45:15.113Z,1.30
2018-11-29T02:47:44.123Z,1.73
2018-11-29T02:50:12.898Z,1.47
2018-11-29T02:52:42.229Z,1.57
2018-11-29T02:55:11.515Z,1.37
2018-11-29T02:57:40.808Z,1.80
2018-11-29T03:00:15.982Z,1.40
2018-11-29T03:02:45.281Z,1.50
2018-11-29T03:05:13.656Z,1.50
2018-11-29T03:07:42.652Z,1.60
2018-11-29T03:10:12.162Z,1.67
2018-11-29T03:12:40.956Z,1.57
2018-11-29T03:15:10.572Z,1.70
2018-11-29T03:17:39.347Z,1.30
2018-11-29T03:20:09.581Z,1.40
2018-11-29T03:22:38.480Z,1.63
2018-11-29T03:25:10.128Z,1.40
2018-11-29T03:27:39.340Z,1.70
2018-11-29T03:30:12.412Z,1.40
2018-11-29T03:32:41.792Z,1.40
2018-11-29T03:35:10.699Z,1.47
2018-11-29T03:37:39.832Z,1.37
2018-11-29T03:40:09.347Z,3.00
2018-11-29T03:42:38.141Z,1.77
2018-11-29T03:45:07.849Z,1.20
2018-11-29T03:47:36.373Z,1.70
2018-11-29T03:50:06.970Z,1.40
2018-11-29T03:52:36.471Z,1.60
2018-11-29T03:55:06.095Z,1.33
2018-11-29T03:57:35.475Z,1.57
2018-11-29T04:00:04.052Z,2.37
2018-11-29T04:02:32.941Z,1.57
2018-11-29T04:05:01.972Z,1.60
2018-11-29T04:07:30.872Z,1.73
2018-11-29T04:10:00.050Z,1.70
2018-11-29T04:12:28.970Z,1.33
2018-11-29T04:14:58.248Z,1.73
2018-11-29T04:17:27.096Z,1.90
2018-11-29T04:19:56.795Z,2.67
2018-11-29T04:22:25.756Z,1.90
2018-11-29T04:24:54.675Z,1.87
2018-11-29T04:27:24.083Z,1.67
2018-11-29T04:29:53.507Z,2.43
2018-11-29T04:32:22.530Z,2.20
2018-11-29T04:34:51.668Z,2.20
2018-11-29T04:37:20.868Z,2.40
2018-11-29T04:39:49.584Z,2.40
2018-11-29T04:42:18.577Z,2.17
2018-11-29T04:44:47.677Z,2.87
2018-11-29T04:47:16.880Z,2.47
2018-11-29T04:49:46.184Z,2.97
2018-11-29T04:52:15.467Z,2.70
2018-11-29T04:54:44.383Z,3.57
2018-11-29T04:57:13.791Z,3.13
2018-11-29T04:59:42.483Z,3.93
2018-11-29T05:02:12.072Z,3.50
2018-11-29T05:04:41.091Z,3.60
2018-11-29T05:07:10.069Z,4.50
2018-11-29T05:09:39.188Z,4.33
2018-11-29T05:12:08.088Z,4.60
2018-11-29T05:14:36.980Z,4.47
2018-11-29T05:17:06.179Z,5.00
2018-11-29T05:19:35.178Z,4.70
2018-11-29T05:22:04.569Z,5.73
2018-11-29T05:24:33.478Z,5.33
2018-11-29T05:27:02.172Z,5.43
2018-11-29T05:29:30.758Z,5.40
2018-11-29T05:31:59.824Z,5.60
2018-11-29T05:34:28.876Z,5.63
2018-11-29T05:36:57.852Z,5.03
2018-11-29T05:39:27.158Z,5.00
2018-11-29T05:41:56.871Z,5.60
2018-11-29T05:44:25.663Z,5.50
2018-11-29T05:46:54.895Z,5.47
2018-11-29T05:49:23.862Z,5.20
2018-11-29T05:51:52.860Z,5.40
2018-11-29T05:54:22.061Z,4.90
2018-11-29T05:56:51.296Z,4.80
2018-11-29T05:59:19.959Z,5.13
2018-11-29T06:01:49.448Z,4.77
2018-11-29T06:04:18.667Z,4.93
2018-11-29T06:06:47.869Z,4.90
2018-11-29T06:09:17.940Z,4.50
2018-11-29T06:11:46.579Z,4.63
2018-11-29T06:14:15.808Z,4.43
2018-11-29T06:16:44.189Z,4.30
2018-11-29T06:19:12.469Z,7.03
2018-11-29T06:21:40.756Z,4.70
2018-11-29T06:24:13.526Z,4.50
2018-11-29T06:26:38.800Z,4.17
2018-11-29T06:29:07.696Z,3.87
2018-11-29T06:31:37.116Z,4.37
2018-11-29T06:34:06.435Z,4.07
2018-11-29T06:36:35.520Z,4.60
2018-11-29T06:39:07.702Z,4.17
2018-11-29T06:41:36.431Z,4.33
2018-11-29T06:44:05.289Z,4.13
2018-11-29T06:46:33.882Z,4.00
2018-11-29T06:49:03.405Z,4.13
2018-11-29T06:51:31.675Z,4.33
2018-11-29T06:54:00.356Z,4.23
2018-11-29T06:56:29.256Z,3.97
2018-11-29T06:58:58.333Z,3.90
2018-11-29T07:01:27.042Z,4.37
2018-11-29T07:03:56.039Z,5.03
2018-11-29T07:06:26.815Z,4.00
2018-11-29T07:08:55.676Z,4.07
2018-11-29T07:11:24.948Z,4.00
2018-11-29T07:13:54.382Z,4.10
2018-11-29T07:16:23.256Z,3.83
2018-11-29T07:18:52.276Z,4.33
2018-11-29T07:21:26.096Z,4.40
2018-11-29T07:23:54.764Z,4.10
2018-11-29T07:26:24.012Z,4.50
2018-11-29T07:28:53.229Z,4.43
2018-11-29T07:31:22.073Z,5.10
2018-11-29T07:33:51.666Z,4.80
2018-11-29T07:36:20.378Z,4.50
2018-11-29T07:38:49.547Z,5.20
2018-11-29T07:41:18.269Z,5.08
2018-11-29T07:43:47.264Z,5.72
2018-11-29T07:46:17.298Z,5.43
2018-11-29T07:48:45.988Z,5.63
2018-11-29T07:51:14.548Z,5.20
2018-11-29T07:53:43.459Z,5.37
2018-11-29T07:56:12.359Z,5.70
2018-11-29T07:58:41.867Z,5.37
2018-11-29T08:01:11.275Z,6.23
2018-11-29T08:03:40.255Z,5.20
2018-11-29T08:06:09.140Z,5.47
2018-11-29T08:08:38.300Z,5.53
2018-11-29T08:11:10.125Z,5.57
2018-11-29T08:13:38.918Z,5.40
2018-11-29T08:16:08.108Z,6.40
2018-11-29T08:18:37.360Z,5.77
2018-11-29T08:21:06.289Z,6.27
2018-11-29T08:23:36.103Z,5.93
2018-11-29T08:26:05.117Z,5.87
2018-11-29T08:28:34.439Z,6.22
2018-11-29T08:31:03.572Z,6.50
2018-11-29T08:33:32.947Z,6.03
2018-11-29T08:36:01.528Z,6.73
2018-11-29T08:38:30.227Z,6.37
2018-11-29T08:40:59.323Z,6.97
2018-11-29T08:43:28.274Z,6.10
2018-11-29T08:45:57.934Z,7.13
2018-11-29T08:48:26.524Z,6.83
2018-11-29T08:50:55.416Z,7.30
2018-11-29T08:53:24.387Z,7.07
2018-11-29T08:55:53.411Z,6.97
2018-11-29T08:58:22.515Z,7.50
2018-11-29T09:00:51.817Z,6.77
2018-11-29T09:03:21.280Z,6.33
2018-11-29T09:05:50.423Z,7.23
2018-11-29T09:08:19.318Z,7.53
2018-11-29T09:10:48.209Z,6.83
2018-11-29T09:13:17.214Z,7.17
2018-11-29T09:15:46.631Z,7.03
2018-11-29T09:18:15.924Z,7.47
2018-11-29T09:20:45.262Z,7.60
2018-11-29T09:23:14.392Z,6.73
2018-11-29T09:25:43.276Z,7.33
2018-11-29T09:28:11.976Z,7.03
2018-11-29T09:30:41.321Z,7.13
2018-11-29T09:33:10.318Z,7.20
2018-11-29T09:35:39.024Z,6.87
2018-11-29T09:38:08.314Z,7.00
2018-11-29T09:40:37.496Z,7.05
2018-11-29T09:43:06.823Z,7.03
2018-11-29T09:45:36.358Z,6.03
2018-11-29T09:48:05.531Z,5.97
2018-11-29T09:50:35.540Z,6.53
2018-11-29T09:53:04.340Z,5.73
2018-11-29T09:55:33.547Z,5.93
2018-11-29T09:58:02.840Z,6.67
2018-11-29T10:00:32.163Z,6.97
2018-11-29T10:03:03.916Z,6.47
2018-11-29T10:05:32.430Z,6.50
2018-11-29T10:08:01.609Z,6.37
2018-11-29T10:10:30.197Z,6.40
2018-11-29T10:12:58.908Z,6.50
2018-11-29T10:15:27.472Z,6.60
2018-11-29T10:17:56.144Z,6.20
2018-11-29T10:20:25.261Z,6.47
2018-11-29T10:22:53.955Z,6.17
2018-11-29T10:25:22.954Z,7.13
2018-11-29T10:27:53.863Z,7.50
2018-11-29T10:30:27.617Z,7.13
2018-11-29T10:32:56.571Z,6.80
2018-11-29T10:35:26.000Z,8.00
2018-11-29T10:37:54.696Z,7.60
2018-11-29T10:40:23.687Z,7.00
2018-11-29T10:42:52.524Z,7.33
2018-11-29T10:45:21.571Z,7.47
2018-11-29T10:47:52.540Z,7.30
2018-11-29T10:50:21.352Z,7.40
2018-11-29T10:52:50.422Z,7.93
2018-11-29T10:55:19.848Z,7.90
2018-11-29T10:57:48.810Z,6.53
2018-11-29T11:00:24.528Z,7.33
2018-11-29T11:02:59.031Z,7.30
2018-11-29T11:05:27.890Z,7.20
2018-11-29T11:07:56.902Z,6.93
2018-11-29T11:10:26.220Z,7.10
2018-11-29T11:12:55.048Z,7.37
2018-11-29T11:15:24.072Z,7.47
2018-11-29T11:17:53.516Z,6.90
2018-11-29T11:20:22.180Z,7.33
2018-11-29T11:22:51.281Z,7.50
2018-11-29T11:25:20.640Z,7.30
2018-11-29T11:27:49.285Z,8.00
2018-11-29T11:30:19.096Z,6.13
2018-11-29T11:32:48.589Z,6.77
2018-11-29T11:35:17.732Z,7.07
2018-11-29T11:37:46.384Z,7.93
2018-11-29T11:40:15.785Z,7.00
2018-11-29T11:42:44.868Z,7.27
2018-11-29T11:45:19.968Z,7.03
2018-11-29T11:47:49.871Z,7.73
2018-11-29T11:50:19.831Z,7.07
2018-11-29T11:52:49.083Z,7.33
2018-11-29T11:55:19.316Z,7.07
2018-11-29T11:57:47.052Z,6.50
2018-11-29T12:00:16.814Z,6.40
2018-11-29T12:02:46.303Z,6.73
2018-11-29T12:05:15.905Z,8.03
2018-11-29T12:07:45.312Z,7.33
2018-11-29T12:10:14.928Z,7.53
2018-11-29T12:12:43.512Z,7.50
2018-11-29T12:15:16.503Z,6.63
2018-11-29T12:17:46.193Z,7.17
2018-11-29T12:20:15.421Z,7.13
2018-11-29T12:22:44.620Z,7.40
2018-11-29T12:25:14.051Z,7.33
2018-11-29T12:27:43.228Z,7.30
2018-11-29T12:30:18.263Z,7.80
2018-11-29T12:32:46.834Z,6.93
2018-11-29T12:35:15.928Z,7.80
2018-11-29T12:37:45.064Z,7.17
2018-11-29T12:40:14.867Z,8.27
2018-11-29T12:42:44.376Z,8.00
2018-11-29T12:45:14.439Z,8.23
2018-11-29T12:47:43.495Z,7.33
2018-11-29T12:50:15.256Z,7.77
2018-11-29T12:52:43.977Z,7.37
2018-11-29T12:55:13.937Z,6.97
2018-11-29T12:57:43.377Z,6.87
2018-11-29T13:00:17.894Z,6.70
2018-11-29T13:02:48.540Z,7.00
2018-11-29T13:05:17.329Z,7.70
2018-11-29T13:07:45.712Z,8.00
2018-11-29T13:10:15.626Z,7.57
2018-11-29T13:12:44.218Z,7.37
2018-11-29T13:15:14.973Z,7.37
2018-11-29T13:17:43.645Z,7.13
2018-11-29T13:20:14.020Z,7.47
2018-11-29T13:22:43.256Z,7.23
2018-11-29T13:25:12.968Z,7.10
2018-11-29T13:27:43.071Z,7.90
2018-11-29T13:30:13.440Z,7.50
2018-11-29T13:32:42.542Z,7.30
2018-11-29T13:35:13.412Z,7.07
2018-11-29T13:37:42.276Z,7.73
2018-11-29T13:40:11.616Z,7.33
2018-11-29T13:42:40.822Z,7.70
2018-11-29T13:45:10.887Z,7.10
2018-11-29T13:47:40.364Z,7.30
2018-11-29T13:50:11.734Z,7.00
2018-11-29T13:52:39.844Z,7.60
2018-11-29T13:55:10.078Z,7.00
2018-11-29T13:57:38.836Z,7.70
2018-11-29T14:00:12.220Z,7.23
2018-11-29T14:02:41.821Z,7.17
2018-11-29T14:05:10.598Z,6.77
2018-11-29T14:07:39.727Z,7.90
2018-11-29T14:10:09.953Z,7.13
2018-11-29T14:12:38.581Z,7.20
2018-11-29T14:15:09.414Z,6.43
2018-11-29T14:17:39.542Z,5.70
2018-11-29T14:20:09.264Z,6.42
2018-11-29T14:22:38.380Z,6.70
2018-11-29T14:25:07.952Z,6.27
2018-11-29T14:27:36.580Z,6.07
2018-11-29T14:30:08.211Z,6.53
2018-11-29T14:32:37.208Z,6.67
2018-11-29T14:35:07.292Z,6.90
2018-11-29T14:37:36.413Z,6.83
2018-11-29T14:40:08.120Z,6.30
2018-11-29T14:42:37.087Z,6.90
2018-11-29T14:45:07.307Z,6.73
2018-11-29T14:47:35.900Z,6.83
2018-11-29T14:50:06.227Z,5.87
2018-11-29T14:52:36.021Z,6.80
2018-11-29T14:55:05.180Z,6.97
2018-11-29T14:57:34.222Z,6.43
2018-11-29T15:00:03.680Z,6.50
2018-11-29T15:02:32.958Z,5.60
2018-11-29T15:05:02.180Z,6.10
2018-11-29T15:07:31.153Z,6.27
2018-11-29T15:09:59.961Z,6.60
2018-11-29T15:12:28.849Z,5.45
2018-11-29T15:14:57.907Z,5.77
2018-11-29T15:17:27.112Z,5.57
2018-11-29T15:19:56.350Z,5.80
2018-11-29T15:22:25.268Z,6.00
2018-11-29T15:24:54.649Z,6.20
2018-11-29T15:27:23.648Z,5.73
2018-11-29T15:29:52.624Z,5.70
2018-11-29T15:32:21.344Z,6.20
2018-11-29T15:34:50.388Z,6.17
2018-11-29T15:37:19.310Z,5.03
2018-11-29T15:39:47.619Z,5.93
2018-11-29T15:42:16.915Z,5.30
2018-11-29T15:44:46.364Z,5.30
2018-11-29T15:47:15.012Z,5.30
2018-11-29T15:49:43.910Z,5.40
2018-11-29T15:52:12.724Z,5.70
2018-11-29T15:54:42.951Z,6.07
2018-11-29T15:57:12.749Z,6.03
2018-11-29T15:59:42.456Z,5.30
2018-11-29T16:02:11.771Z,5.63
2018-11-29T16:04:41.168Z,5.40
2018-11-29T16:07:09.551Z,6.03
2018-11-29T16:09:38.524Z,6.10
2018-11-29T16:12:07.545Z,6.53
2018-11-29T16:14:36.957Z,5.17
2018-11-29T16:17:05.540Z,5.37
2018-11-29T16:19:34.846Z,4.63
2018-11-29T16:22:04.048Z,5.57
2018-11-29T16:24:33.109Z,6.10
2018-11-29T16:27:01.978Z,5.50
2018-11-29T16:29:31.182Z,5.97
2018-11-29T16:32:00.200Z,5.73
2018-11-29T16:34:29.838Z,5.17
2018-11-29T16:36:59.055Z,5.40
2018-11-29T16:39:28.288Z,5.67
2018-11-29T16:41:57.832Z,5.93
2018-11-29T16:44:27.071Z,5.30
2018-11-29T16:46:56.807Z,5.70
2018-11-29T16:49:25.783Z,5.40
2018-11-29T16:51:55.642Z,5.13
2018-11-29T16:54:24.392Z,4.87
2018-11-29T16:56:53.117Z,5.50
2018-11-29T16:59:22.182Z,5.53
2018-11-29T17:01:51.464Z,5.60
2018-11-29T17:04:20.381Z,5.13
2018-11-29T17:06:48.969Z,5.40
2018-11-29T17:09:17.868Z,5.77
2018-11-29T17:11:46.854Z,5.23
2018-11-29T17:14:15.757Z,5.83
2018-11-29T17:16:44.672Z,5.57
2018-11-29T17:19:13.733Z,5.33
2018-11-29T17:21:42.730Z,5.27
2018-11-29T17:24:12.054Z,5.50
2018-11-29T17:26:41.052Z,5.43
2018-11-29T17:29:09.424Z,5.50
2018-11-29T17:31:38.644Z,5.40
2018-11-29T17:34:08.044Z,6.30
2018-11-29T17:36:36.938Z,5.40
2018-11-29T17:39:08.280Z,5.63
2018-11-29T17:41:38.426Z,5.63
2018-11-29T17:44:08.164Z,5.70
2018-11-29T17:46:37.534Z,4.97
2018-11-29T17:49:06.609Z,5.87
2018-11-29T17:51:35.836Z,6.07
2018-11-29T17:54:04.839Z,5.67
2018-11-29T17:56:33.204Z,5.40
2018-11-29T17:59:02.907Z,5.73
2018-11-29T18:01:31.501Z,5.00
2018-11-29T18:04:00.835Z,5.23
2018-11-29T18:06:30.256Z,5.07
2018-11-29T18:08:59.330Z,6.03
2018-11-29T18:11:27.657Z,5.58
2018-11-29T18:13:57.376Z,6.03
2018-11-29T18:16:25.644Z,5.17
2018-11-29T18:18:54.196Z,6.00
2018-11-29T18:21:24.132Z,5.27
2018-11-29T18:23:53.317Z,5.43
2018-11-29T18:26:22.172Z,4.93
2018-11-29T18:28:50.593Z,5.67
2018-11-29T18:31:19.684Z,5.13
2018-11-29T18:33:48.944Z,5.17
2018-11-29T18:36:17.381Z,4.57
2018-11-29T18:38:46.276Z,5.37
2018-11-29T18:41:15.887Z,5.80
2018-11-29T18:43:44.908Z,5.77
2018-11-29T18:46:17.197Z,5.43
2018-11-29T18:48:42.658Z,5.30
2018-11-29T18:51:12.454Z,5.40
2018-11-29T18:53:41.160Z,5.30
2018-11-29T18:56:10.384Z,5.53
2018-11-29T18:58:39.555Z,5.73
2018-11-29T19:01:08.686Z,5.27
2018-11-29T19:03:37.924Z,5.40
2018-11-29T19:06:07.308Z,5.27
2018-11-29T19:08:36.644Z,5.07
2018-11-29T19:11:05.997Z,5.70
2018-11-29T19:13:34.719Z,5.50
2018-11-29T19:16:03.773Z,5.50
2018-11-29T19:18:32.723Z,5.17
2018-11-29T19:21:01.455Z,4.70
2018-11-29T19:23:30.483Z,4.90
2018-11-29T19:25:59.197Z,5.03
2018-11-29T19:28:28.152Z,5.03
2018-11-29T19:30:57.113Z,5.13
2018-11-29T19:33:26.642Z,4.90
2018-11-29T19:35:56.195Z,4.87
2018-11-29T19:38:25.267Z,5.67
2018-11-29T19:40:54.542Z,4.83
2018-11-29T19:43:23.704Z,5.30
2018-11-29T19:45:52.652Z,4.57
2018-11-29T19:48:22.200Z,5.00
2018-11-29T19:50:50.966Z,4.30
2018-11-29T19:53:21.364Z,4.70
2018-11-29T19:55:50.773Z,5.03
2018-11-29T19:58:19.881Z,5.07
2018-11-29T20:00:49.900Z,4.40
2018-11-29T20:03:19.242Z,4.70
2018-11-29T20:05:48.557Z,5.10
2018-11-29T20:08:17.553Z,5.10
2018-11-29T20:10:46.281Z,4.73
2018-11-29T20:13:15.588Z,5.03
2018-11-29T20:15:45.167Z,5.00
2018-11-29T20:18:14.818Z,4.70
2018-11-29T20:20:43.608Z,5.03
2018-11-29T20:23:12.228Z,4.93
2018-11-29T20:25:42.257Z,5.33
2018-11-29T20:28:11.068Z,5.62
2018-11-29T20:30:39.766Z,5.50
2018-11-29T20:33:08.453Z,5.10
2018-11-29T20:35:37.294Z,5.80
2018-11-29T20:38:06.853Z,5.30
2018-11-29T20:40:36.262Z,5.13
2018-11-29T20:43:05.249Z,5.50
2018-11-29T20:45:38.824Z,5.83
2018-11-29T20:48:12.960Z,5.17
2018-11-29T20:50:42.287Z,5.57
2018-11-29T20:53:12.047Z,4.97
2018-11-29T20:55:41.020Z,5.93
2018-11-29T20:58:09.925Z,5.17
2018-11-29T21:00:38.612Z,5.17
2018-11-29T21:03:07.500Z,5.77
2018-11-29T21:05:36.877Z,6.03
2018-11-29T21:08:06.924Z,5.53
2018-11-29T21:10:36.529Z,5.47
2018-11-29T21:13:10.983Z,5.27
2018-11-29T21:15:41.974Z,5.50
2018-11-29T21:18:12.691Z,5.53
2018-11-29T21:20:42.013Z,5.33
2018-11-29T21:23:12.277Z,6.20
2018-11-29T21:25:41.246Z,5.17
2018-11-29T21:28:10.520Z,5.20
2018-11-29T21:30:39.439Z,5.53
2018-11-29T21:33:12.736Z,5.33
2018-11-29T21:35:42.616Z,5.57
2018-11-29T21:38:17.553Z,5.47
2018-11-29T21:41:03.605Z,5.85
2018-11-29T21:43:32.774Z,6.10
2018-11-29T21:46:01.890Z,6.27
2018-11-29T21:48:31.080Z,6.57
2018-11-29T21:50:59.961Z,6.80
2018-11-29T21:53:29.081Z,6.70
2018-11-29T21:55:58.381Z,6.73
2018-11-29T21:58:26.857Z,6.40
2018-11-29T22:00:55.590Z,7.33
2018-11-29T22:03:24.549Z,7.80
2018-11-29T22:05:52.941Z,7.07
2018-11-29T22:08:21.593Z,7.23
2018-11-29T22:10:50.517Z,7.53
2018-11-29T22:13:19.720Z,7.53
2018-11-29T22:15:49.206Z,8.17
2018-11-29T22:18:20.467Z,7.40
2018-11-29T22:20:53.332Z,7.70
2018-11-29T22:23:22.268Z,7.40
2018-11-29T22:25:51.591Z,7.07
2018-11-29T22:28:20.871Z,7.83
2018-11-29T22:30:49.868Z,8.40
2018-11-29T22:33:19.132Z,9.23
2018-11-29T22:35:48.172Z,8.03
2018-11-29T22:38:17.675Z,7.83
2018-11-29T22:40:46.552Z,8.40
2018-11-29T22:43:15.792Z,7.90
2018-11-29T22:45:44.664Z,8.07
2018-11-29T22:48:14.397Z,8.87
2018-11-29T22:50:43.408Z,7.80
2018-11-29T22:53:12.798Z,7.50
2018-11-29T22:55:42.148Z,7.58
2018-11-29T22:58:11.708Z,8.07
2018-11-29T23:00:46.005Z,7.83
2018-11-29T23:03:15.004Z,8.10
2018-11-29T23:05:43.721Z,8.60
2018-11-29T23:08:12.980Z,8.07
2018-11-29T23:10:41.857Z,9.20
2018-11-29T23:13:10.828Z,8.37
2018-11-29T23:15:39.701Z,8.40
2018-11-29T23:18:09.815Z,8.60
2018-11-29T23:20:38.821Z,9.30
2018-11-29T23:23:08.024Z,8.67
2018-11-29T23:25:37.361Z,9.07
2018-11-29T23:28:06.640Z,7.83
2018-11-29T23:30:35.916Z,9.03
2018-11-29T23:33:05.145Z,8.33
2018-11-29T23:35:34.473Z,8.20
2018-11-29T23:38:03.444Z,8.13
2018-11-29T23:40:32.805Z,8.60
2018-11-29T23:43:02.154Z,7.77
2018-11-29T23:45:31.540Z,8.23
2018-11-29T23:48:00.385Z,8.23
2018-11-29T23:50:29.454Z,8.20
2018-11-29T23:52:58.348Z,9.23
2018-11-29T23:55:27.234Z,8.30
2018-11-29T23:57:56.223Z,8.30
